Time;durP1;ratioP1;P1;durP2;ratioP2;P2;SDS_P1;SDS_P2;PMS_P1;PMS_P2;Temp;Humidity;BMP_temperature;BMP_pressure;BME280_temperature;BME280_humidity;BME280_pressure;Samples;Min_cycle;Max_cycle;Signal;HPM_P1;HPM_P2
2023/01/30 00:00:33;;;;;;;61.25;27.65;;;2.70;99.10;;;;;;5031035;28;20497;-68
2023/01/30 00:02:58;;;;;;;63.50;29.52;;;2.80;99.10;;;;;;5028956;28;20033;-68
2023/01/30 00:05:24;;;;;;;58.15;28.05;;;2.80;99.00;;;;;;5030512;28;20037;-69
2023/01/30 00:07:50;;;;;;;62.97;29.77;;;2.80;99.00;;;;;;5031890;28;20363;-68
2023/01/30 00:10:15;;;;;;;56.08;26.60;;;2.80;99.00;;;;;;5028876;28;20052;-69
2023/01/30 00:12:41;;;;;;;64.20;29.52;;;2.80;99.00;;;;;;5028590;28;20120;-69
2023/01/30 00:15:07;;;;;;;61.65;29.83;;;2.80;99.00;;;;;;5031381;28;20429;-69
2023/01/30 00:17:33;;;;;;;58.75;28.95;;;2.80;99.10;;;;;;5027535;28;20073;-69
2023/01/30 00:19:58;;;;;;;67.25;30.60;;;2.80;99.10;;;;;;5023174;28;20504;-68
2023/01/30 00:22:24;;;;;;;50.63;25.88;;;2.90;99.10;;;;;;5023326;28;20053;-69
2023/01/30 00:24:49;;;;;;;56.55;23.77;;;2.90;99.10;;;;;;5015893;28;20120;-69
2023/01/30 00:27:15;;;;;;;64.75;30.35;;;2.90;99.20;;;;;;5024715;28;20033;-70
2023/01/30 00:29:41;;;;;;;72.63;30.65;;;2.90;99.10;;;;;;5018398;28;20425;-69
2023/01/30 00:32:06;;;;;;;60.10;28.25;;;2.90;99.20;;;;;;5024974;28;20037;-70
2023/01/30 00:34:32;;;;;;;61.28;30.08;;;2.90;99.20;;;;;;5019178;28;20505;-69
2023/01/30 00:36:58;;;;;;;69.55;29.95;;;2.90;99.20;;;;;;5027421;28;20033;-69
2023/01/30 00:39:24;;;;;;;67.38;32.35;;;3.00;99.20;;;;;;5027153;28;20165;-69
2023/01/30 00:47:18;;;;;;;63.67;30.80;;;3.00;99.10;;;;;;5024642;28;20020;-69
2023/01/30 00:49:43;;;;;;;64.95;30.35;;;3.10;99.10;;;;;;5027041;28;21390;-71
2023/01/30 00:52:08;;;;;;;64.38;29.25;;;3.10;99.10;;;;;;5023136;28;20037;-69
2023/01/30 00:54:34;;;;;;;60.15;28.25;;;3.10;99.10;;;;;;5028385;28;20037;-68
2023/01/30 00:56:59;;;;;;;49.67;24.80;;;3.10;99.10;;;;;;5026214;28;20083;-69
2023/01/30 00:59:26;;;;;;;58.95;29.42;;;3.10;99.10;;;;;;5018148;28;20553;-69
2023/01/30 01:01:51;;;;;;;56.97;28.33;;;3.10;99.20;;;;;;5024670;28;20034;-72
2023/01/30 01:04:17;;;;;;;63.05;29.38;;;3.10;99.30;;;;;;5025505;28;20040;-68
2023/01/30 01:06:42;;;;;;;51.90;27.50;;;3.20;99.20;;;;;;5025283;28;20474;-69
2023/01/30 01:09:08;;;;;;;65.13;29.52;;;3.20;99.10;;;;;;5028211;28;20041;-69
2023/01/30 01:11:34;;;;;;;53.97;26.85;;;3.20;99.10;;;;;;5025540;28;20378;-69
2023/01/30 01:14:01;;;;;;;61.95;30.60;;;3.30;99.10;;;;;;5027244;28;20116;-71
2023/01/30 01:16:28;;;;;;;55.67;28.88;;;3.20;99.10;;;;;;5031824;28;20053;-69
2023/01/30 01:18:54;;;;;;;56.67;29.80;;;3.30;99.20;;;;;;5023762;28;20048;-69
2023/01/30 01:21:21;;;;;;;48.03;21.90;;;3.40;99.10;;;;;;5022579;28;20038;-69
2023/01/30 01:23:51;;;;;;;61.28;28.30;;;3.40;99.20;;;;;;5022447;28;20092;-71
2023/01/30 01:26:17;;;;;;;60.83;30.80;;;3.40;99.20;;;;;;5022193;28;20374;-69
2023/01/30 01:28:42;;;;;;;65.55;29.40;;;3.40;99.10;;;;;;5027762;28;20021;-70
2023/01/30 01:31:09;;;;;;;60.25;29.00;;;3.50;99.20;;;;;;5031073;28;20120;-71
2023/01/30 01:33:35;;;;;;;56.90;27.10;;;3.40;99.20;;;;;;5032179;28;20030;-69
2023/01/30 01:36:00;;;;;;;52.30;26.27;;;3.50;99.30;;;;;;5022135;28;20044;-68
2023/01/30 01:38:26;;;;;;;50.92;26.63;;;3.50;99.30;;;;;;5027671;28;20034;-69
2023/01/30 01:41:08;;;;;;;55.55;26.45;;;3.60;99.30;;;;;;5027358;28;20136;-69
2023/01/30 01:43:38;;;;;;;60.17;30.13;;;3.60;99.30;;;;;;5034026;28;20079;-69
2023/01/30 01:46:19;;;;;;;49.22;24.48;;;3.60;99.40;;;;;;5034733;28;20088;-71
2023/01/30 01:48:50;;;;;;;58.50;26.70;;;3.60;99.50;;;;;;5026536;28;20474;-69
2023/01/30 01:51:25;;;;;;;59.67;28.08;;;3.70;99.40;;;;;;5023607;28;20045;-69
2023/01/30 01:54:02;;;;;;;62.95;30.85;;;3.70;99.40;;;;;;5028551;28;20299;-69
2023/01/30 01:56:29;;;;;;;63.78;30.55;;;3.70;99.50;;;;;;5027123;28;20112;-69
2023/01/30 01:59:00;;;;;;;59.47;29.40;;;3.80;99.50;;;;;;5031295;28;20117;-69
2023/01/30 02:01:26;;;;;;;61.95;32.08;;;3.80;99.40;;;;;;5030489;28;20044;-69
2023/01/30 02:03:57;;;;;;;62.97;30.10;;;3.90;99.40;;;;;;5026076;28;20528;-69
2023/01/30 02:06:24;;;;;;;61.78;29.40;;;3.90;99.40;;;;;;5029440;28;20448;-70
2023/01/30 02:09:00;;;;;;;46.55;24.40;;;3.90;99.40;;;;;;5021576;28;20048;-69
2023/01/30 02:11:45;;;;;;;61.90;30.65;;;3.90;99.40;;;;;;5026996;28;20033;-69
2023/01/30 02:14:11;;;;;;;56.03;26.48;;;3.90;99.40;;;;;;5031934;28;20061;-69
2023/01/30 02:16:37;;;;;;;71.53;30.08;;;4.00;99.60;;;;;;5031940;28;20043;-69
2023/01/30 02:19:11;;;;;;;56.13;27.52;;;3.90;99.60;;;;;;5028688;28;20458;-71
2023/01/30 02:21:58;;;;;;;56.65;27.35;;;3.90;99.70;;;;;;5027821;28;20029;-69
2023/01/30 02:24:52;;;;;;;60.85;29.20;;;4.00;99.80;;;;;;5024865;28;20053;-69
2023/01/30 02:27:33;;;;;;;56.90;25.10;;;3.90;99.80;;;;;;5035189;28;20026;-70
2023/01/30 02:30:20;;;;;;;50.17;23.88;;;4.00;99.90;;;;;;5033311;28;20033;-69
2023/01/30 02:33:21;;;;;;;57.50;25.92;;;4.00;99.90;;;;;;5029081;28;20040;-70
2023/01/30 02:36:01;;;;;;;56.90;27.75;;;4.00;99.90;;;;;;5026685;28;20061;-70
2023/01/30 02:38:40;;;;;;;59.88;27.33;;;4.10;99.90;;;;;;5029870;28;20030;-69
2023/01/30 02:41:19;;;;;;;50.35;26.77;;;4.10;99.90;;;;;;5027893;28;20043;-69
2023/01/30 02:43:47;;;;;;;50.63;22.20;;;4.10;99.90;;;;;;5034106;28;20099;-70
2023/01/30 02:46:40;;;;;;;46.20;24.73;;;4.10;99.90;;;;;;5027889;28;20029;-69
2023/01/30 02:49:14;;;;;;;53.60;25.50;;;4.20;99.90;;;;;;5029837;28;20484;-70
2023/01/30 02:51:42;;;;;;;50.22;25.73;;;4.20;99.90;;;;;;5031504;28;20029;-70
2023/01/30 02:54:11;;;;;;;52.63;25.05;;;4.20;99.90;;;;;;5031091;28;20029;-70
2023/01/30 02:56:48;;;;;;;50.30;25.10;;;4.20;99.90;;;;;;5030989;28;20373;-70
2023/01/30 02:59:30;;;;;;;47.50;23.65;;;4.30;99.90;;;;;;5027844;28;20497;-70
2023/01/30 03:02:23;;;;;;;45.75;22.90;;;4.30;99.90;;;;;;5027478;28;20075;-70
2023/01/30 03:04:57;;;;;;;46.35;22.70;;;4.30;99.90;;;;;;5024620;28;20466;-70
2023/01/30 03:07:41;;;;;;;46.05;22.23;;;4.30;99.90;;;;;;5029577;28;20033;-70
2023/01/30 03:10:10;;;;;;;49.30;24.15;;;4.40;99.90;;;;;;5031276;28;20030;-69
2023/01/30 03:12:59;;;;;;;41.75;21.65;;;4.40;99.90;;;;;;5028338;28;20029;-69
2023/01/30 03:15:58;;;;;;;45.25;25.38;;;4.50;99.90;;;;;;5030877;28;20053;-70
2023/01/30 03:18:24;;;;;;;51.45;23.30;;;4.50;99.90;;;;;;5025031;28;20186;-69
2023/01/30 03:20:50;;;;;;;43.28;21.85;;;4.50;99.90;;;;;;5027412;28;20100;-69
2023/01/30 03:23:15;;;;;;;44.47;22.40;;;4.50;99.90;;;;;;5026238;28;20541;-70
2023/01/30 03:25:43;;;;;;;46.60;23.50;;;4.60;99.90;;;;;;5028370;28;20112;-70
2023/01/30 03:28:11;;;;;;;38.67;19.38;;;4.50;99.90;;;;;;5019518;28;20466;-70
2023/01/30 03:30:37;;;;;;;46.90;21.55;;;4.60;99.90;;;;;;5026310;28;20040;-69
2023/01/30 03:33:02;;;;;;;41.75;21.88;;;4.60;99.90;;;;;;5025528;28;20030;-69
2023/01/30 03:35:28;;;;;;;43.35;23.05;;;4.60;99.90;;;;;;5016780;28;20051;-69
2023/01/30 03:37:54;;;;;;;39.90;22.00;;;4.60;99.90;;;;;;5022979;28;20389;-70
2023/01/30 03:40:20;;;;;;;41.38;21.75;;;4.60;99.90;;;;;;5024971;28;20025;-70
2023/01/30 03:42:45;;;;;;;34.10;19.42;;;4.60;99.90;;;;;;5031788;28;20029;-70
2023/01/30 03:45:11;;;;;;;39.22;19.08;;;4.70;99.90;;;;;;5026092;28;20049;-69
2023/01/30 03:47:36;;;;;;;37.75;20.00;;;4.80;99.90;;;;;;5027007;28;20020;-70
2023/01/30 03:50:02;;;;;;;37.42;19.20;;;4.80;99.90;;;;;;5029658;28;20128;-70
2023/01/30 03:52:28;;;;;;;36.25;17.92;;;4.80;99.90;;;;;;5036220;28;20025;-70
2023/01/30 03:54:53;;;;;;;31.98;16.48;;;4.90;99.90;;;;;;5032316;28;20033;-69
2023/01/30 03:57:19;;;;;;;33.08;17.10;;;4.90;99.90;;;;;;5026915;28;20033;-69
2023/01/30 03:59:44;;;;;;;40.35;17.75;;;4.90;99.90;;;;;;5025628;28;20026;-70
2023/01/30 04:02:10;;;;;;;31.15;16.05;;;4.90;99.90;;;;;;5024860;28;20436;-69
2023/01/30 04:04:35;;;;;;;31.88;16.27;;;5.00;99.90;;;;;;5032799;28;20032;-69
2023/01/30 04:07:00;;;;;;;28.40;15.55;;;5.00;99.90;;;;;;5024366;28;20030;-70
2023/01/30 04:09:26;;;;;;;28.85;14.85;;;5.00;99.90;;;;;;5020280;28;20026;-69
2023/01/30 04:11:52;;;;;;;26.63;14.15;;;5.00;99.90;;;;;;5020720;28;20123;-69
2023/01/30 04:14:17;;;;;;;24.55;12.88;;;5.00;99.80;;;;;;5029316;28;20462;-69
2023/01/30 04:16:44;;;;;;;21.50;11.75;;;5.00;99.70;;;;;;5029123;28;20100;-70
2023/01/30 04:19:10;;;;;;;23.00;12.07;;;5.00;99.70;;;;;;5027172;28;20033;-70
2023/01/30 04:21:35;;;;;;;20.45;11.38;;;5.00;99.70;;;;;;5030332;28;20036;-69
2023/01/30 04:24:01;;;;;;;19.65;9.98;;;5.10;99.70;;;;;;5019624;28;20138;-69
2023/01/30 04:26:26;;;;;;;18.20;9.20;;;5.10;99.50;;;;;;5023878;28;20030;-70
2023/01/30 04:28:52;;;;;;;16.55;8.57;;;5.10;99.20;;;;;;5020777;28;20522;-69
2023/01/30 04:31:17;;;;;;;20.67;7.85;;;5.20;99.10;;;;;;5028571;28;20048;-69
2023/01/30 04:33:43;;;;;;;17.40;6.68;;;5.10;99.10;;;;;;5023555;28;20437;-69
2023/01/30 04:36:09;;;;;;;18.92;7.70;;;5.10;99.10;;;;;;5022672;28;20033;-70
2023/01/30 04:38:35;;;;;;;14.48;6.50;;;5.10;99.20;;;;;;5029950;28;20497;-70
2023/01/30 04:41:01;;;;;;;12.90;5.05;;;5.10;99.20;;;;;;5027549;28;20033;-70
2023/01/30 04:43:27;;;;;;;13.43;4.65;;;5.10;99.20;;;;;;5026904;28;20466;-71
2023/01/30 04:45:53;;;;;;;10.73;5.38;;;5.10;99.30;;;;;;5026040;28;20041;-70
2023/01/30 04:48:20;;;;;;;11.02;5.03;;;5.10;99.30;;;;;;5021660;28;20043;-70
2023/01/30 04:50:47;;;;;;;10.55;4.32;;;5.10;99.20;;;;;;5024816;28;20035;-70
2023/01/30 04:53:14;;;;;;;12.57;3.03;;;5.20;98.90;;;;;;5022257;28;20034;-69
2023/01/30 04:55:40;;;;;;;6.78;2.90;;;5.10;99.00;;;;;;5026578;28;20428;-69
2023/01/30 04:58:05;;;;;;;5.63;1.88;;;5.10;99.00;;;;;;5023523;28;20029;-69
2023/01/30 05:00:31;;;;;;;4.35;2.10;;;5.10;98.90;;;;;;5027299;28;20037;-69
2023/01/30 05:02:56;;;;;;;4.20;1.40;;;5.10;98.90;;;;;;5026194;28;20034;-69
2023/01/30 05:05:23;;;;;;;6.93;1.65;;;5.00;98.50;;;;;;5028421;28;20564;-70
2023/01/30 05:07:49;;;;;;;9.07;1.17;;;5.00;98.40;;;;;;5027898;28;20033;-69
2023/01/30 05:10:15;;;;;;;5.97;0.93;;;4.80;98.30;;;;;;5030837;28;20032;-69
2023/01/30 05:12:40;;;;;;;3.72;1.08;;;4.80;98.00;;;;;;5027767;28;20034;-69
2023/01/30 05:15:06;;;;;;;5.20;1.13;;;4.80;98.20;;;;;;5021571;28;20469;-69
2023/01/30 05:17:32;;;;;;;7.63;1.20;;;4.90;97.70;;;;;;5021655;28;20474;-69
2023/01/30 05:19:58;;;;;;;4.90;1.05;;;4.90;97.80;;;;;;5030150;28;20051;-69
2023/01/30 05:22:23;;;;;;;2.35;1.13;;;4.90;97.70;;;;;;5029100;28;20524;-69
2023/01/30 05:24:49;;;;;;;3.95;1.15;;;4.90;97.30;;;;;;5021292;28;20088;-70
2023/01/30 05:27:14;;;;;;;6.70;1.02;;;4.90;97.40;;;;;;5022637;28;20061;-69
2023/01/30 05:29:40;;;;;;;7.50;1.00;;;4.80;96.70;;;;;;5027884;28;20113;-68
2023/01/30 05:32:05;;;;;;;6.57;1.33;;;4.80;96.80;;;;;;5031653;28;20032;-70
2023/01/30 05:34:31;;;;;;;7.90;1.00;;;4.70;97.00;;;;;;5018373;28;20041;-70
2023/01/30 05:36:56;;;;;;;5.85;1.10;;;4.70;96.90;;;;;;5028583;28;20042;-69
2023/01/30 05:39:22;;;;;;;5.25;1.23;;;4.70;97.20;;;;;;5026605;28;20026;-70
2023/01/30 05:41:47;;;;;;;8.35;1.50;;;4.70;97.20;;;;;;5029617;28;20057;-70
2023/01/30 05:44:13;;;;;;;8.20;1.40;;;4.60;97.50;;;;;;5030013;28;20077;-70
2023/01/30 05:46:38;;;;;;;9.25;1.80;;;4.60;97.40;;;;;;5023156;28;20493;-70
2023/01/30 05:49:04;;;;;;;10.88;1.92;;;4.60;97.80;;;;;;5017335;28;20064;-70
2023/01/30 05:51:29;;;;;;;7.90;1.27;;;4.50;97.90;;;;;;5022827;28;20037;-70
2023/01/30 05:53:55;;;;;;;10.32;1.80;;;4.50;98.00;;;;;;5027027;28;20025;-70
2023/01/30 05:56:21;;;;;;;12.77;1.65;;;4.40;98.10;;;;;;5020531;28;20048;-70
2023/01/30 05:58:51;;;;;;;5.55;1.40;;;4.40;98.20;;;;;;5025376;28;20109;-70
2023/01/30 06:01:17;;;;;;;9.32;1.60;;;4.30;98.00;;;;;;5019054;28;20421;-69
2023/01/30 06:03:43;;;;;;;9.98;1.85;;;4.30;98.10;;;;;;5021808;28;20029;-70
2023/01/30 06:06:11;;;;;;;4.72;1.10;;;4.30;97.90;;;;;;5022561;28;20045;-70
2023/01/30 06:08:36;;;;;;;8.52;1.45;;;4.20;97.90;;;;;;5022060;28;20025;-70
2023/01/30 06:11:04;;;;;;;6.15;1.30;;;4.20;97.90;;;;;;5023483;28;20040;-70
2023/01/30 06:13:30;;;;;;;12.52;1.52;;;4.20;97.90;;;;;;5029423;28;20473;-70
2023/01/30 06:15:55;;;;;;;14.63;2.55;;;4.30;97.30;;;;;;5022461;28;20022;-70
2023/01/30 06:18:21;;;;;;;8.13;1.45;;;4.30;97.00;;;;;;5027836;28;20057;-70
2023/01/30 06:20:51;;;;;;;3.22;1.30;;;4.20;96.90;;;;;;5019684;28;20034;-70
2023/01/30 06:23:17;;;;;;;13.55;1.63;;;4.20;97.00;;;;;;5020448;28;20057;-70
2023/01/30 06:25:46;;;;;;;9.75;1.58;;;4.20;96.90;;;;;;5019429;28;20375;-70
2023/01/30 06:28:13;;;;;;;8.75;1.35;;;4.20;96.60;;;;;;5025382;28;20056;-70
2023/01/30 06:30:38;;;;;;;8.75;1.15;;;4.10;96.50;;;;;;5028461;28;20033;-70
2023/01/30 06:33:05;;;;;;;13.15;1.25;;;4.10;96.20;;;;;;5029574;28;20525;-70
2023/01/30 06:35:30;;;;;;;9.75;1.45;;;4.10;96.00;;;;;;5018173;28;20062;-70
2023/01/30 06:37:56;;;;;;;16.42;1.52;;;4.10;96.20;;;;;;5026534;28;20073;-70
2023/01/30 06:40:21;;;;;;;9.45;1.60;;;4.10;96.10;;;;;;5028854;28;20054;-70
2023/01/30 06:42:48;;;;;;;7.60;1.17;;;4.00;96.50;;;;;;5024040;28;20096;-70
2023/01/30 06:45:16;;;;;;;10.27;1.20;;;4.00;96.40;;;;;;5029440;28;20374;-70
2023/01/30 06:47:49;;;;;;;7.68;1.45;;;4.10;96.20;;;;;;5023241;28;20041;-69
2023/01/30 06:50:17;;;;;;;12.95;2.13;;;4.00;95.90;;;;;;5023682;28;20025;-70
2023/01/30 06:52:47;;;;;;;5.55;1.10;;;4.00;96.00;;;;;;5029036;28;20030;-70
2023/01/30 06:55:15;;;;;;;9.70;1.40;;;4.00;95.90;;;;;;5023190;28;20025;-70
2023/01/30 06:57:41;;;;;;;9.02;1.38;;;4.00;95.50;;;;;;5019390;28;20096;-70
2023/01/30 07:00:10;;;;;;;8.32;1.30;;;4.00;95.60;;;;;;5029257;28;20470;-70
2023/01/30 07:02:35;;;;;;;9.25;1.25;;;4.00;95.60;;;;;;5030086;28;20025;-70
2023/01/30 07:05:02;;;;;;;16.80;1.88;;;4.00;95.50;;;;;;5030296;28;20034;-70
2023/01/30 07:07:29;;;;;;;21.40;2.47;;;4.10;95.20;;;;;;5029093;28;20034;-70
2023/01/30 07:09:54;;;;;;;15.13;1.95;;;4.10;95.70;;;;;;5023206;28;20479;-70
2023/01/30 07:12:20;;;;;;;15.63;2.65;;;4.10;95.90;;;;;;5026661;28;20098;-70
2023/01/30 07:14:45;;;;;;;15.45;3.38;;;4.10;96.20;;;;;;5028243;28;20068;-70
2023/01/30 07:17:11;;;;;;;18.70;3.42;;;4.30;96.10;;;;;;5025654;28;20051;-69
2023/01/30 07:19:37;;;;;;;17.42;3.15;;;4.40;96.10;;;;;;5030549;28;20482;-70
2023/01/30 07:22:03;;;;;;;14.48;2.33;;;4.40;96.10;;;;;;5030523;28;20037;-70
2023/01/30 07:24:29;;;;;;;12.07;2.17;;;4.30;96.50;;;;;;5025939;28;20036;-70
2023/01/30 07:26:54;;;;;;;14.80;3.05;;;4.40;96.60;;;;;;5027343;28;20037;-70
2023/01/30 07:29:20;;;;;;;17.23;2.67;;;4.50;96.10;;;;;;5027691;28;20481;-70
2023/01/30 07:31:45;;;;;;;28.55;3.42;;;4.40;96.40;;;;;;5025128;28;20099;-70
2023/01/30 07:34:11;;;;;;;19.70;2.60;;;4.40;96.60;;;;;;5025371;28;20030;-70
2023/01/30 07:36:36;;;;;;;27.08;3.22;;;4.40;96.60;;;;;;5022599;28;20038;-69
2023/01/30 07:39:02;;;;;;;26.40;3.45;;;4.40;96.60;;;;;;5028224;28;20160;-70
2023/01/30 07:41:28;;;;;;;23.27;3.58;;;4.30;96.80;;;;;;5030843;28;20108;-69
2023/01/30 07:43:53;;;;;;;19.20;3.17;;;4.40;96.70;;;;;;5026703;28;20042;-70
2023/01/30 07:46:18;;;;;;;30.60;4.53;;;4.30;96.70;;;;;;5035600;28;20478;-70
2023/01/30 07:48:44;;;;;;;25.15;4.43;;;4.40;96.80;;;;;;5021908;28;20038;-70
2023/01/30 07:51:10;;;;;;;25.75;4.70;;;4.30;96.80;;;;;;5022345;28;20036;-70
2023/01/30 07:53:35;;;;;;;25.15;4.30;;;4.30;96.70;;;;;;5026635;28;20042;-70
2023/01/30 07:56:08;;;;;;;28.40;3.92;;;4.30;96.90;;;;;;5025866;28;20041;-70
2023/01/30 07:58:34;;;;;;;30.27;3.50;;;4.40;96.80;;;;;;5025811;28;20462;-70
2023/01/30 08:00:59;;;;;;;28.90;4.35;;;4.30;96.90;;;;;;5022205;28;20092;-70
2023/01/30 08:03:25;;;;;;;23.63;4.10;;;4.40;96.70;;;;;;5021867;28;20033;-70
2023/01/30 08:05:52;;;;;;;32.40;4.60;;;4.40;96.50;;;;;;5024839;28;21295;-69
2023/01/30 08:08:17;;;;;;;28.90;4.38;;;4.40;96.40;;;;;;5017107;28;20029;-70
2023/01/30 08:10:43;;;;;;;29.67;4.35;;;4.40;96.20;;;;;;5025371;28;20037;-70
2023/01/30 08:13:08;;;;;;;29.48;4.72;;;4.50;96.30;;;;;;5024648;28;20112;-70
2023/01/30 08:15:34;;;;;;;28.77;4.35;;;4.50;96.30;;;;;;5030397;28;20167;-69
2023/01/30 08:18:00;;;;;;;22.33;4.40;;;4.60;96.00;;;;;;5024486;28;20105;-70
2023/01/30 08:20:27;;;;;;;24.20;4.35;;;4.60;95.60;;;;;;5029312;28;20025;-70
2023/01/30 08:22:53;;;;;;;31.98;4.18;;;4.60;95.70;;;;;;5024893;28;20085;-70
2023/01/30 08:25:19;;;;;;;32.25;4.35;;;4.70;94.90;;;;;;5024831;28;20090;-70
2023/01/30 08:27:44;;;;;;;25.52;4.18;;;4.80;95.00;;;;;;5022049;28;20037;-70
2023/01/30 08:30:11;;;;;;;21.13;3.58;;;4.90;94.70;;;;;;5021408;28;20033;-70
2023/01/30 08:32:37;;;;;;;30.13;4.38;;;4.90;94.60;;;;;;5026882;28;20037;-70
2023/01/30 08:35:02;;;;;;;22.00;3.92;;;4.90;94.40;;;;;;5023573;28;20036;-70
2023/01/30 08:37:28;;;;;;;25.25;4.00;;;5.00;93.50;;;;;;5023080;28;20506;-70
2023/01/30 08:39:53;;;;;;;26.98;4.10;;;5.10;93.40;;;;;;5019600;28;20030;-70
2023/01/30 08:42:19;;;;;;;20.35;3.47;;;5.00;93.70;;;;;;5019150;28;20030;-69
2023/01/30 08:44:44;;;;;;;21.70;2.67;;;5.10;92.90;;;;;;5027788;28;20056;-69
2023/01/30 08:47:10;;;;;;;32.55;4.35;;;5.10;93.10;;;;;;5018528;28;20026;-70
2023/01/30 08:49:35;;;;;;;28.63;4.50;;;5.10;92.80;;;;;;5020381;28;20048;-70
2023/01/30 08:52:01;;;;;;;25.65;3.88;;;5.20;93.00;;;;;;5027288;28;20040;-70
2023/01/30 08:54:26;;;;;;;18.23;2.70;;;5.30;92.80;;;;;;5023113;28;20037;-70
2023/01/30 08:56:52;;;;;;;25.38;3.58;;;5.30;92.20;;;;;;5013370;28;20037;-70
2023/01/30 08:59:17;;;;;;;22.08;3.55;;;5.30;92.50;;;;;;5019700;28;20533;-69
2023/01/30 09:01:42;;;;;;;17.63;3.70;;;5.30;92.70;;;;;;5028102;28;20486;-69
2023/01/30 09:04:08;;;;;;;18.42;3.90;;;5.50;92.20;;;;;;5022943;28;20065;-69
2023/01/30 09:06:34;;;;;;;30.67;3.78;;;5.40;92.30;;;;;;5017877;28;20034;-69
2023/01/30 09:09:00;;;;;;;18.55;2.92;;;5.40;92.50;;;;;;5025451;28;20490;-67
2023/01/30 09:11:25;;;;;;;16.40;2.92;;;5.30;92.00;;;;;;5021117;28;20037;-68
2023/01/30 09:13:51;;;;;;;17.25;3.05;;;5.30;92.00;;;;;;5024271;28;20033;-68
2023/01/30 09:16:16;;;;;;;18.80;3.75;;;5.20;92.90;;;;;;5028800;28;20037;-70
2023/01/30 09:18:43;;;;;;;15.40;2.60;;;5.20;93.00;;;;;;5026367;28;20036;-70
2023/01/30 09:21:10;;;;;;;18.38;2.90;;;5.20;92.90;;;;;;5027021;28;20048;-70
2023/01/30 09:23:36;;;;;;;22.98;3.50;;;5.30;93.00;;;;;;5023865;28;20046;-70
2023/01/30 09:26:02;;;;;;;23.42;4.10;;;5.40;92.80;;;;;;5028921;28;20580;-70
2023/01/30 09:28:28;;;;;;;17.33;2.88;;;5.50;92.50;;;;;;5026365;28;20022;-70
2023/01/30 09:30:58;;;;;;;29.70;4.00;;;5.40;92.50;;;;;;5026086;28;20497;-70
2023/01/30 09:33:23;;;;;;;18.92;3.83;;;5.40;93.20;;;;;;5024677;28;20025;-71
2023/01/30 09:35:49;;;;;;;16.88;3.10;;;5.30;94.10;;;;;;5026873;28;20045;-70
2023/01/30 09:38:15;;;;;;;21.10;3.65;;;5.30;93.70;;;;;;5030050;28;20033;-70
2023/01/30 09:40:58;;;;;;;23.35;4.50;;;5.40;93.20;;;;;;5029422;28;20338;-71
2023/01/30 09:43:42;;;;;;;20.95;3.42;;;5.50;92.80;;;;;;5028742;28;20034;-70
2023/01/30 09:46:45;;;;;;;20.92;3.58;;;5.60;92.40;;;;;;5028941;28;20390;-70
2023/01/30 09:49:17;;;;;;;19.13;3.83;;;5.60;91.80;;;;;;5025210;28;20041;-70
2023/01/30 09:52:13;;;;;;;15.80;2.70;;;5.60;91.80;;;;;;5028133;28;20584;-70
2023/01/30 09:54:43;;;;;;;22.45;3.55;;;5.70;91.00;;;;;;5024705;28;20490;-70
2023/01/30 09:57:20;;;;;;;16.60;3.28;;;5.80;91.20;;;;;;5020889;28;20030;-70
2023/01/30 10:00:08;;;;;;;23.15;3.17;;;5.80;90.30;;;;;;5027589;28;20045;-71
2023/01/30 10:02:56;;;;;;;21.42;3.00;;;5.90;90.20;;;;;;5022098;28;20049;-71
2023/01/30 10:05:34;;;;;;;19.23;3.33;;;5.90;90.30;;;;;;5032128;28;20068;-71
2023/01/30 10:08:20;;;;;;;17.52;3.25;;;6.00;89.30;;;;;;5033624;28;20049;-71
2023/01/30 10:10:51;;;;;;;19.23;3.58;;;6.00;89.70;;;;;;5029558;28;20381;-71
2023/01/30 10:13:55;;;;;;;26.92;4.43;;;6.00;89.50;;;;;;5025474;28;20061;-71
2023/01/30 10:16:27;;;;;;;14.85;2.72;;;6.00;89.80;;;;;;5025440;28;20049;-71
2023/01/30 10:19:14;;;;;;;16.58;4.15;;;6.00;88.80;;;;;;5024943;28;20480;-71
2023/01/30 10:22:02;;;;;;;22.73;4.03;;;6.00;88.80;;;;;;5028025;28;20034;-71
2023/01/30 10:24:58;;;;;;;21.83;3.42;;;6.00;89.10;;;;;;5024216;28;20045;-71
2023/01/30 10:27:28;;;;;;;17.38;3.40;;;6.00;89.00;;;;;;5027496;28;20057;-71
2023/01/30 10:29:57;;;;;;;16.10;3.93;;;6.10;88.90;;;;;;5029474;28;20059;-70
2023/01/30 10:32:30;;;;;;;22.38;4.43;;;6.00;88.20;;;;;;5024383;28;20384;-71
2023/01/30 10:35:01;;;;;;;14.65;2.67;;;6.10;88.10;;;;;;5023624;28;20478;-71
2023/01/30 10:37:39;;;;;;;14.32;2.90;;;6.20;88.50;;;;;;5025893;28;20056;-71
2023/01/30 10:40:21;;;;;;;13.60;3.17;;;6.20;88.20;;;;;;5027270;28;20037;-71
2023/01/30 10:43:12;;;;;;;21.67;4.32;;;6.30;87.60;;;;;;5029374;28;20030;-71
2023/01/30 10:45:50;;;;;;;20.73;2.83;;;6.20;87.70;;;;;;5028631;28;20038;-71
2023/01/30 10:48:35;;;;;;;10.50;1.95;;;6.20;87.90;;;;;;5024941;28;20505;-71
2023/01/30 10:51:15;;;;;;;15.57;2.95;;;6.20;87.00;;;;;;5030344;28;20033;-71
2023/01/30 10:53:48;;;;;;;13.02;2.78;;;6.30;85.80;;;;;;5032318;28;20029;-71
2023/01/30 10:56:18;;;;;;;12.70;2.67;;;6.30;86.70;;;;;;5025493;28;20049;-71
2023/01/30 10:58:57;;;;;;;18.33;3.35;;;6.40;86.90;;;;;;5024882;28;20481;-71
2023/01/30 11:01:57;;;;;;;15.45;3.28;;;6.50;87.10;;;;;;5022797;28;20488;-70
2023/01/30 11:04:34;;;;;;;28.77;3.57;;;6.60;86.40;;;;;;5036460;28;20603;-70
2023/01/30 11:07:01;;;;;;;23.80;3.58;;;6.60;86.80;;;;;;5023433;28;20108;-71
2023/01/30 11:09:41;;;;;;;10.32;2.65;;;6.50;87.90;;;;;;5027155;28;20033;-70
2023/01/30 11:12:06;;;;;;;16.13;2.75;;;6.30;88.00;;;;;;5027829;28;20408;-71
2023/01/30 11:15:00;;;;;;;17.92;3.28;;;6.10;88.90;;;;;;5023892;28;20033;-71
2023/01/30 11:17:40;;;;;;;14.95;3.35;;;5.80;91.20;;;;;;5023277;28;20037;-71
2023/01/30 11:20:21;;;;;;;16.67;2.65;;;5.60;91.70;;;;;;5022671;28;20057;-72
2023/01/30 11:22:50;;;;;;;13.55;1.85;;;5.20;94.30;;;;;;5026755;28;20042;-70
2023/01/30 11:25:20;;;;;;;3.65;1.00;;;4.90;95.30;;;;;;5025842;28;20034;-70
2023/01/30 11:27:58;;;;;;;2.05;0.60;;;4.40;95.20;;;;;;5021097;28;20034;-69
2023/01/30 11:30:32;;;;;;;3.00;0.60;;;4.20;94.80;;;;;;5028704;28;20973;-70
2023/01/30 11:33:15;;;;;;;3.67;0.80;;;4.20;95.50;;;;;;5026714;28;20489;-69
2023/01/30 11:35:53;;;;;;;3.92;0.80;;;4.20;95.70;;;;;;5023309;28;20036;-69
2023/01/30 11:38:28;;;;;;;3.85;0.60;;;4.20;95.70;;;;;;5026793;28;20072;-70
2023/01/30 11:41:21;;;;;;;3.08;0.77;;;4.20;95.90;;;;;;5027512;28;20030;-69
2023/01/30 11:43:47;;;;;;;7.43;0.55;;;4.30;95.90;;;;;;5027614;28;20469;-70
2023/01/30 11:46:19;;;;;;;4.53;1.08;;;4.40;95.90;;;;;;5019699;28;20034;-70
2023/01/30 11:48:57;;;;;;;8.60;1.20;;;4.50;95.40;;;;;;5027962;28;20037;-70
2023/01/30 11:51:23;;;;;;;9.68;1.23;;;4.70;95.10;;;;;;5028526;28;20043;-70
2023/01/30 11:54:02;;;;;;;9.23;1.23;;;4.80;95.00;;;;;;5016698;28;20044;-71
2023/01/30 11:56:37;;;;;;;5.50;1.02;;;4.90;94.70;;;;;;5021581;28;20036;-70
2023/01/30 11:59:29;;;;;;;6.53;1.00;;;5.00;94.10;;;;;;5027849;28;20486;-70
2023/01/30 12:02:09;;;;;;;6.22;1.33;;;4.90;93.80;;;;;;5024357;28;20397;-70
2023/01/30 12:04:35;;;;;;;9.88;1.80;;;5.00;93.90;;;;;;5022304;28;20033;-71
2023/01/30 12:07:24;;;;;;;10.00;1.23;;;5.20;94.00;;;;;;5028734;28;20398;-70
2023/01/30 12:09:52;;;;;;;13.45;1.70;;;5.20;93.80;;;;;;5027478;28;20112;-70
2023/01/30 12:12:36;;;;;;;8.40;1.45;;;5.30;94.10;;;;;;5022182;28;20104;-72
2023/01/30 12:15:16;;;;;;;11.00;1.63;;;5.30;94.20;;;;;;5024360;28;20052;-72
2023/01/30 12:18:12;;;;;;;19.08;2.17;;;5.50;93.10;;;;;;5027303;28;20037;-72
2023/01/30 12:20:47;;;;;;;8.00;1.20;;;5.60;93.10;;;;;;5025308;28;20037;-72
2023/01/30 12:23:46;;;;;;;14.23;2.08;;;5.70;92.50;;;;;;5025795;28;20050;-71
2023/01/30 12:26:20;;;;;;;13.45;2.30;;;5.80;92.30;;;;;;5022323;28;20034;-72
2023/01/30 12:28:52;;;;;;;14.55;2.22;;;6.00;92.70;;;;;;5023669;28;20030;-71
2023/01/30 12:31:24;;;;;;;15.80;2.38;;;6.10;91.50;;;;;;5028586;28;20040;-71
2023/01/30 12:33:49;;;;;;;10.18;2.95;;;6.10;90.30;;;;;;5024581;28;20084;-72
2023/01/30 12:36:24;;;;;;;15.25;2.72;;;6.10;90.40;;;;;;5029458;28;20037;-71
2023/01/30 12:39:19;;;;;;;15.88;2.78;;;6.10;90.20;;;;;;5024759;28;20042;-71
2023/01/30 12:42:12;;;;;;;12.50;2.88;;;6.10;90.20;;;;;;5008647;28;20041;-70
2023/01/30 12:44:56;;;;;;;15.70;2.83;;;6.10;88.50;;;;;;5026646;28;20033;-71
2023/01/30 12:47:49;;;;;;;19.20;3.38;;;6.20;89.20;;;;;;5025470;28;20079;-71
2023/01/30 12:50:50;;;;;;;15.80;3.03;;;6.40;87.50;;;;;;5024763;28;20025;-70
2023/01/30 12:53:24;;;;;;;12.00;2.50;;;6.50;86.30;;;;;;5030064;28;20049;-70
2023/01/30 12:56:23;;;;;;;15.90;2.70;;;6.40;86.10;;;;;;5022259;28;20037;-70
2023/01/30 12:59:24;;;;;;;20.08;2.72;;;6.40;86.20;;;;;;5021733;28;20041;-70
2023/01/30 13:01:58;;;;;;;;;;;6.20;86.40;;;;;;5019181;28;20025;-70
2023/01/30 13:04:51;;;;;;;18.20;3.30;;;6.10;88.10;;;;;;5020392;28;19917;-69
2023/01/30 13:07:59;;;;;;;14.63;2.53;;;5.90;89.30;;;;;;5026120;28;20025;-69
2023/01/30 13:10:53;;;;;;;12.90;2.45;;;5.70;89.50;;;;;;5014519;28;20112;-70